createdAt,value
2018-11-28T00:00:35.066Z,27.87
2018-11-28T00:03:08.035Z,32.67
2018-11-28T00:05:39.592Z,36.13
2018-11-28T00:08:12.403Z,33.73
2018-11-28T00:10:43.973Z,38.27
2018-11-28T00:13:14.881Z,37.47
2018-11-28T00:15:47.847Z,35.97
2018-11-28T00:18:18.479Z,36.43
2018-11-28T00:20:50.651Z,35.67
2018-11-28T00:23:21.563Z,33.50
2018-11-28T00:25:52.278Z,35.73
2018-11-28T00:28:25.586Z,34.60
2018-11-28T00:30:56.240Z,38.00
2018-11-28T00:33:27.838Z,35.27
2018-11-28T00:36:00.588Z,39.40
2018-11-28T00:38:31.338Z,32.30
2018-11-28T00:41:01.113Z,30.47
2018-11-28T00:43:34.127Z,32.60
2018-11-28T00:46:04.385Z,32.40
2018-11-28T00:48:37.478Z,31.43
2018-11-28T00:51:09.700Z,33.77
2018-11-28T00:53:43.551Z,34.70
2018-11-28T00:56:14.078Z,29.63
2018-11-28T00:58:44.482Z,31.50
2018-11-28T01:01:15.591Z,28.90
2018-11-28T01:03:46.439Z,31.43
2018-11-28T01:06:16.933Z,35.10
2018-11-28T01:08:47.360Z,36.87
2018-11-28T01:11:18.375Z,33.30
2018-11-28T01:13:48.476Z,32.10
2018-11-28T01:16:18.847Z,32.50
2018-11-28T01:18:52.438Z,38.37
2018-11-28T01:21:23.810Z,34.65
2018-11-28T01:23:54.740Z,39.57
2018-11-28T01:26:24.508Z,36.87
2018-11-28T01:28:55.601Z,35.33
2018-11-28T01:31:27.406Z,34.30
2018-11-28T01:33:57.068Z,34.03
2018-11-28T01:36:27.928Z,37.87
2018-11-28T01:38:58.154Z,31.50
2018-11-28T01:41:30.172Z,35.27
2018-11-28T01:44:04.385Z,37.87
2018-11-28T01:46:36.308Z,36.03
2018-11-28T01:49:07.031Z,33.60
2018-11-28T01:51:39.439Z,35.67
2018-11-28T01:54:12.039Z,32.30
2018-11-28T01:56:44.404Z,32.17
2018-11-28T01:59:14.697Z,32.37
2018-11-28T02:01:45.670Z,33.73
2018-11-28T02:04:16.428Z,32.33
2018-11-28T02:06:49.836Z,36.47
2018-11-28T02:09:19.605Z,30.03
2018-11-28T02:11:49.476Z,33.70
2018-11-28T02:14:20.682Z,34.97
2018-11-28T02:16:51.356Z,30.73
2018-11-28T02:19:23.854Z,28.90
2018-11-28T02:21:57.088Z,26.73
2018-11-28T02:24:29.418Z,29.63
2018-11-28T02:27:03.967Z,32.43
2018-11-28T02:29:36.676Z,32.73
2018-11-28T02:32:09.532Z,30.67
2018-11-28T02:34:43.061Z,32.00
2018-11-28T02:37:14.997Z,35.70
2018-11-28T02:39:46.782Z,27.10
2018-11-28T02:42:16.744Z,29.27
2018-11-28T02:44:47.476Z,30.23
2018-11-28T02:47:18.084Z,27.90
2018-11-28T02:49:49.311Z,28.70
2018-11-28T02:52:22.067Z,31.00
2018-11-28T02:54:53.349Z,30.40
2018-11-28T02:57:24.772Z,28.70
2018-11-28T02:59:56.803Z,31.40
2018-11-28T03:02:27.737Z,28.60
2018-11-28T03:04:57.888Z,29.33
2018-11-28T03:07:29.050Z,29.77
2018-11-28T03:09:58.732Z,29.77
2018-11-28T03:12:29.623Z,27.67
2018-11-28T03:15:00.003Z,27.50
2018-11-28T03:17:30.837Z,28.70
2018-11-28T03:20:01.745Z,28.20
2018-11-28T03:22:31.700Z,27.33
2018-11-28T03:25:01.296Z,29.77
2018-11-28T03:27:33.655Z,26.67
2018-11-28T03:30:05.631Z,27.03
2018-11-28T03:32:37.771Z,25.20
2018-11-28T03:35:10.687Z,34.00
2018-11-28T03:37:42.751Z,28.77
2018-11-28T03:40:13.397Z,27.20
2018-11-28T03:42:45.013Z,24.90
2018-11-28T03:45:16.621Z,32.90
2018-11-28T03:47:49.212Z,25.67
2018-11-28T03:50:22.912Z,27.07
2018-11-28T03:52:54.523Z,23.30
2018-11-28T03:55:27.586Z,27.80
2018-11-28T03:58:00.212Z,25.80
2018-11-28T04:00:30.881Z,28.57
2018-11-28T04:03:02.879Z,24.60
2018-11-28T04:05:35.156Z,25.00
2018-11-28T04:08:06.160Z,24.57
2018-11-28T04:10:36.580Z,23.13
2018-11-28T04:13:07.560Z,27.73
2018-11-28T04:15:38.706Z,25.10
2018-11-28T04:18:12.094Z,23.43
2018-11-28T04:20:42.056Z,24.27
2018-11-28T04:23:12.331Z,26.33
2018-11-28T04:25:43.031Z,24.80
2018-11-28T04:28:14.197Z,26.50
2018-11-28T04:30:44.037Z,25.63
2018-11-28T04:33:16.323Z,26.63
2018-11-28T04:35:48.152Z,30.33
2018-11-28T04:38:18.601Z,25.80
2018-11-28T04:40:51.083Z,28.10
2018-11-28T04:43:21.137Z,28.47
2018-11-28T04:45:51.503Z,28.13
2018-11-28T04:48:22.302Z,21.80
2018-11-28T04:50:53.900Z,21.80
2018-11-28T04:53:25.245Z,23.83
2018-11-28T04:56:01.602Z,23.63
2018-11-28T04:58:34.089Z,24.67
2018-11-28T05:01:05.668Z,25.10
2018-11-28T05:03:35.251Z,24.13
2018-11-28T05:06:07.045Z,24.17
2018-11-28T05:08:37.098Z,26.50
2018-11-28T05:11:08.017Z,24.20
2018-11-28T05:13:38.900Z,28.00
2018-11-28T05:16:08.944Z,24.57
2018-11-28T05:18:40.396Z,22.70
2018-11-28T05:21:10.264Z,23.03
2018-11-28T05:23:40.263Z,25.50
2018-11-28T05:26:11.383Z,28.27
2018-11-28T05:28:41.435Z,32.23
2018-11-28T05:31:12.822Z,24.83
2018-11-28T05:33:43.377Z,26.40
2018-11-28T05:36:14.383Z,26.90
2018-11-28T05:38:45.000Z,26.47
2018-11-28T05:41:15.166Z,25.37
2018-11-28T05:43:45.821Z,25.90
2018-11-28T05:46:17.025Z,25.37
2018-11-28T05:48:47.201Z,27.70
2018-11-28T05:51:19.071Z,23.43
2018-11-28T05:53:49.593Z,26.53
2018-11-28T05:56:20.180Z,27.90
2018-11-28T05:58:50.381Z,25.07
2018-11-28T06:01:22.448Z,25.67
2018-11-28T06:03:58.593Z,21.00
2018-11-28T06:06:29.699Z,27.23
2018-11-28T06:08:59.680Z,25.60
2018-11-28T06:11:30.671Z,24.10
2018-11-28T06:14:00.645Z,24.67
2018-11-28T06:16:32.219Z,24.37
2018-11-28T06:19:08.223Z,27.30
2018-11-28T06:21:39.150Z,23.37
2018-11-28T06:24:09.384Z,23.10
2018-11-28T06:26:40.032Z,29.60
2018-11-28T06:29:09.751Z,22.23
2018-11-28T06:31:40.610Z,25.90
2018-11-28T06:34:11.431Z,24.83
2018-11-28T06:36:41.710Z,24.33
2018-11-28T06:39:12.440Z,22.93
2018-11-28T06:41:42.691Z,22.40
2018-11-28T06:44:13.675Z,29.67
2018-11-28T06:46:44.594Z,27.33
2018-11-28T06:49:18.801Z,25.27
2018-11-28T06:51:49.079Z,25.93
2018-11-28T06:54:18.950Z,26.07
2018-11-28T06:56:49.817Z,29.60
2018-11-28T06:59:20.916Z,24.13
2018-11-28T07:01:51.791Z,28.50
2018-11-28T07:04:22.710Z,31.30
2018-11-28T07:06:53.884Z,26.00
2018-11-28T07:09:25.230Z,23.97
2018-11-28T07:11:55.104Z,28.33
2018-11-28T07:14:24.998Z,27.67
2018-11-28T07:16:56.735Z,29.50
2018-11-28T07:19:28.208Z,27.23
2018-11-28T07:21:57.887Z,28.83
2018-11-28T07:24:29.045Z,23.10
2018-11-28T07:26:58.909Z,26.40
2018-11-28T07:29:29.710Z,26.70
2018-11-28T07:32:00.091Z,27.23
2018-11-28T07:34:31.050Z,28.60
2018-11-28T07:37:01.665Z,26.00
2018-11-28T07:39:31.762Z,24.10
2018-11-28T07:42:02.573Z,29.00
2018-11-28T07:44:33.380Z,30.60
2018-11-28T07:47:04.177Z,26.80
2018-11-28T07:49:34.593Z,25.43
2018-11-28T07:52:05.522Z,27.73
2018-11-28T07:54:36.112Z,32.93
2018-11-28T07:57:07.777Z,29.73
2018-11-28T07:59:37.849Z,24.53
2018-11-28T08:02:08.211Z,23.07
2018-11-28T08:04:39.060Z,26.73
2018-11-28T08:07:10.347Z,24.60
2018-11-28T08:09:40.261Z,27.43
2018-11-28T08:12:11.452Z,26.57
2018-11-28T08:14:42.096Z,24.20
2018-11-28T08:17:12.915Z,31.23
2018-11-28T08:19:43.321Z,25.70
2018-11-28T08:22:14.393Z,29.40
2018-11-28T08:24:45.257Z,25.00
2018-11-28T08:27:16.036Z,27.00
2018-11-28T08:29:47.087Z,25.33
2018-11-28T08:32:19.207Z,27.93
2018-11-28T08:34:51.227Z,24.13
2018-11-28T08:37:23.035Z,24.53
2018-11-28T08:39:55.534Z,25.50
2018-11-28T08:42:26.375Z,25.23
2018-11-28T08:44:58.587Z,23.00
2018-11-28T08:47:31.260Z,27.43
2018-11-28T08:50:02.313Z,24.63
2018-11-28T08:52:33.794Z,21.73
2018-11-28T08:55:06.542Z,21.33
2018-11-28T08:57:37.294Z,21.93
2018-11-28T09:00:16.355Z,22.87
2018-11-28T09:02:57.851Z,23.23
2018-11-28T09:05:30.938Z,19.43
2018-11-28T09:08:02.053Z,25.17
2018-11-28T09:10:34.267Z,22.93
2018-11-28T09:13:05.744Z,23.30
2018-11-28T09:15:36.376Z,22.10
2018-11-28T09:18:09.051Z,25.33
2018-11-28T09:20:42.093Z,22.23
2018-11-28T09:23:12.935Z,30.50
2018-11-28T09:25:44.045Z,24.13
2018-11-28T09:28:14.378Z,28.93
2018-11-28T09:30:44.607Z,28.73
2018-11-28T09:33:16.469Z,27.93
2018-11-28T09:35:47.559Z,25.60
2018-11-28T09:38:18.548Z,22.90
2018-11-28T09:40:50.068Z,23.73
2018-11-28T09:43:20.829Z,25.00
2018-11-28T09:45:50.781Z,25.57
2018-11-28T09:48:21.692Z,24.03
2018-11-28T09:50:52.401Z,22.67
2018-11-28T09:53:23.567Z,24.27
2018-11-28T09:55:53.863Z,21.60
2018-11-28T09:58:25.333Z,25.03
2018-11-28T10:00:54.903Z,21.03
2018-11-28T10:03:24.568Z,24.00
2018-11-28T10:05:54.251Z,23.10
2018-11-28T10:08:24.620Z,22.67
2018-11-28T10:10:55.554Z,24.67
2018-11-28T10:13:25.674Z,23.00
2018-11-28T10:15:57.022Z,23.83
2018-11-28T10:18:28.907Z,28.30
2018-11-28T10:21:02.229Z,20.60
2018-11-28T10:23:31.911Z,20.80
2018-11-28T10:26:03.388Z,23.90
2018-11-28T10:28:34.584Z,28.50
2018-11-28T10:31:04.639Z,21.43
2018-11-28T10:33:36.175Z,21.27
2018-11-28T10:36:09.408Z,22.30
2018-11-28T10:38:39.085Z,24.10
2018-11-28T10:41:10.064Z,31.70
2018-11-28T10:43:40.136Z,23.07
2018-11-28T10:46:11.202Z,20.43
2018-11-28T10:48:43.062Z,24.60
2018-11-28T10:51:14.987Z,18.53
2018-11-28T10:53:46.021Z,19.37
2018-11-28T10:56:16.942Z,21.87
2018-11-28T10:58:48.173Z,18.57
2018-11-28T11:01:26.222Z,28.23
2018-11-28T11:04:02.261Z,19.13
2018-11-28T11:06:39.368Z,23.53
2018-11-28T11:09:16.365Z,23.23
2018-11-28T11:11:55.801Z,21.63
2018-11-28T11:14:35.486Z,20.60
2018-11-28T11:17:08.048Z,20.40
2018-11-28T11:19:41.400Z,21.50
2018-11-28T11:22:12.748Z,20.23
2018-11-28T11:24:43.896Z,20.57
2018-11-28T11:27:14.895Z,19.00
2018-11-28T11:29:47.014Z,17.20
2018-11-28T11:32:18.076Z,17.50
2018-11-28T11:34:49.025Z,18.83
2018-11-28T11:37:19.607Z,15.10
2018-11-28T11:39:51.742Z,15.23
2018-11-28T11:42:23.135Z,17.00
2018-11-28T11:44:53.934Z,14.70
2018-11-28T11:47:24.886Z,14.00
2018-11-28T11:49:54.969Z,13.60
2018-11-28T11:52:25.821Z,14.50
2018-11-28T11:54:56.377Z,16.87
2018-11-28T11:57:27.601Z,14.90
2018-11-28T11:59:58.275Z,12.63
2018-11-28T12:02:28.125Z,13.27
2018-11-28T12:04:59.336Z,13.50
2018-11-28T12:07:31.172Z,17.93
2018-11-28T12:10:08.983Z,18.57
2018-11-28T12:12:37.909Z,13.63
2018-11-28T12:15:13.382Z,18.70
2018-11-28T12:17:46.592Z,18.70
2018-11-28T12:20:24.681Z,18.60
2018-11-28T12:22:56.967Z,16.37
2018-11-28T12:25:30.934Z,19.63
2018-11-28T12:28:04.539Z,17.70
2018-11-28T12:30:34.220Z,14.50
2018-11-28T12:33:05.203Z,16.97
2018-11-28T12:35:36.683Z,16.43
2018-11-28T12:38:07.163Z,17.43
2018-11-28T12:40:39.070Z,20.03
2018-11-28T12:43:11.014Z,18.43
2018-11-28T12:45:43.082Z,21.80
2018-11-28T12:48:15.431Z,17.20
2018-11-28T12:50:45.238Z,24.47
2018-11-28T12:53:16.469Z,16.70
2018-11-28T12:55:48.063Z,17.93
2018-11-28T12:58:20.615Z,19.43
2018-11-28T13:00:51.506Z,19.47
2018-11-28T13:03:22.355Z,16.20
2018-11-28T13:05:57.759Z,21.37
2018-11-28T13:08:31.814Z,21.03
2018-11-28T13:11:02.713Z,23.63
2018-11-28T13:13:33.620Z,21.53
2018-11-28T13:16:04.573Z,22.07
2018-11-28T13:18:34.432Z,17.47
2018-11-28T13:21:09.428Z,19.87
2018-11-28T13:23:45.759Z,20.77
2018-11-28T13:26:15.473Z,18.77
2018-11-28T13:28:46.257Z,18.57
2018-11-28T13:31:16.667Z,14.83
2018-11-28T13:33:47.537Z,22.23
2018-11-28T13:36:22.583Z,23.60
2018-11-28T13:38:50.137Z,31.17
2018-11-28T13:41:25.398Z,23.07
2018-11-28T13:43:58.233Z,20.33
2018-11-28T13:46:28.635Z,20.40
2018-11-28T13:48:59.311Z,18.23
2018-11-28T13:51:29.596Z,19.93
2018-11-28T13:53:59.880Z,16.57
2018-11-28T13:56:58.222Z,17.50
2018-11-28T13:59:02.343Z,18.63
2018-11-28T14:01:33.700Z,16.93
2018-11-28T14:04:10.476Z,15.60
2018-11-28T14:06:42.281Z,15.30
2018-11-28T14:09:13.798Z,22.93
2018-11-28T14:11:45.732Z,24.43
2018-11-28T14:14:16.012Z,19.40
2018-11-28T14:16:46.855Z,16.40
2018-11-28T14:19:16.906Z,17.50
2018-11-28T14:21:47.898Z,16.07
2018-11-28T14:24:17.698Z,18.77
2018-11-28T14:26:48.092Z,17.47
2018-11-28T14:29:18.823Z,19.73
2018-11-28T14:31:49.917Z,17.83
2018-11-28T14:34:21.782Z,18.07
2018-11-28T14:36:54.044Z,17.67
2018-11-28T14:39:24.950Z,20.97
2018-11-28T14:41:55.549Z,16.47
2018-11-28T14:44:26.092Z,18.93
2018-11-28T14:46:56.686Z,22.47
2018-11-28T14:49:27.569Z,15.97
2018-11-28T14:51:58.082Z,16.30
2018-11-28T14:54:28.664Z,18.73
2018-11-28T14:56:59.563Z,18.30
2018-11-28T14:59:30.464Z,17.60
2018-11-28T15:02:01.130Z,22.50
2018-11-28T15:05:34.122Z,21.10
2018-11-28T15:08:07.728Z,22.20
2018-11-28T15:10:57.434Z,17.30
2018-11-28T15:13:29.214Z,20.30
2018-11-28T15:16:01.153Z,22.90
2018-11-28T15:18:34.420Z,20.33
2018-11-28T15:21:05.458Z,21.60
2018-11-28T15:23:35.077Z,18.30
2018-11-28T15:26:06.547Z,23.37
2018-11-28T15:28:36.127Z,23.37
2018-11-28T15:31:07.307Z,22.10
2018-11-28T15:33:37.785Z,20.80
2018-11-28T15:36:08.337Z,22.07
2018-11-28T15:38:38.982Z,22.40
2018-11-28T15:41:09.473Z,17.50
2018-11-28T15:43:39.984Z,17.07
2018-11-28T15:46:14.920Z,23.50
2018-11-28T15:48:41.360Z,24.43
2018-11-28T15:51:12.059Z,23.57
2018-11-28T15:53:42.275Z,23.97
2018-11-28T15:56:13.251Z,24.73
2018-11-28T15:58:44.359Z,22.33
2018-11-28T16:01:14.339Z,23.57
2018-11-28T16:03:45.384Z,22.47
2018-11-28T16:06:16.284Z,28.47
2018-11-28T16:08:52.213Z,30.63
2018-11-28T16:11:23.033Z,30.80
2018-11-28T16:13:54.167Z,29.37
2018-11-28T16:16:25.203Z,28.33
2018-11-28T16:18:57.908Z,29.20
2018-11-28T16:21:29.328Z,35.03
2018-11-28T16:24:00.307Z,36.33
2018-11-28T16:26:30.299Z,38.43
2018-11-28T16:29:01.412Z,40.60
2018-11-28T16:31:32.434Z,38.80
2018-11-28T16:34:02.351Z,36.47
2018-11-28T16:36:39.870Z,36.40
2018-11-28T16:39:09.823Z,42.93
2018-11-28T16:41:40.033Z,47.33
2018-11-28T16:44:10.724Z,39.60
2018-11-28T16:46:41.235Z,45.57
2018-11-28T16:49:12.719Z,41.73
2018-11-28T16:51:42.606Z,40.40
2018-11-28T16:54:14.376Z,49.70
2018-11-28T16:56:44.253Z,49.20
2018-11-28T16:59:15.686Z,46.00
2018-11-28T17:01:46.088Z,53.60
2018-11-28T17:04:17.436Z,50.03
2018-11-28T17:06:48.648Z,56.83
2018-11-28T17:09:18.378Z,65.07
2018-11-28T17:11:49.754Z,56.60
2018-11-28T17:14:19.345Z,61.13
2018-11-28T17:16:51.437Z,64.73
2018-11-28T17:19:22.431Z,71.10
2018-11-28T17:21:52.880Z,62.77
2018-11-28T17:24:23.792Z,67.87
2018-11-28T17:26:53.571Z,64.63
2018-11-28T17:29:28.054Z,66.20
2018-11-28T17:31:58.484Z,61.70
2018-11-28T17:34:29.809Z,65.60
2018-11-28T17:36:59.897Z,62.93
2018-11-28T17:39:31.398Z,68.90
2018-11-28T17:42:04.799Z,70.83
2018-11-28T17:44:34.978Z,65.10
2018-11-28T17:47:04.996Z,68.27
2018-11-28T17:49:38.603Z,70.63
2018-11-28T17:52:08.916Z,64.17
2018-11-28T17:54:40.548Z,69.77
2018-11-28T17:57:13.191Z,67.50
2018-11-28T17:59:44.011Z,79.33
2018-11-28T18:02:14.950Z,71.60
2018-11-28T18:04:44.880Z,63.30
2018-11-28T18:07:15.071Z,65.17
2018-11-28T18:09:45.995Z,64.27
2018-11-28T18:12:17.369Z,67.67
2018-11-28T18:14:47.725Z,65.70
2018-11-28T18:17:17.923Z,63.50
2018-11-28T18:19:47.913Z,63.00
2018-11-28T18:22:19.004Z,68.50
2018-11-28T18:24:49.811Z,67.90
2018-11-28T18:27:19.305Z,60.67
2018-11-28T18:29:51.843Z,69.67
2018-11-28T18:32:21.767Z,62.93
2018-11-28T18:34:52.814Z,66.37
2018-11-28T18:37:24.364Z,72.07
2018-11-28T18:39:53.848Z,66.83
2018-11-28T18:42:24.555Z,64.43
2018-11-28T18:44:55.237Z,67.23
2018-11-28T18:47:26.022Z,65.10
2018-11-28T18:49:55.949Z,64.93
2018-11-28T18:52:27.195Z,66.73
2018-11-28T18:54:57.588Z,62.10
2018-11-28T18:57:28.968Z,63.23
2018-11-28T18:59:58.568Z,66.47
2018-11-28T19:02:32.690Z,69.87
2018-11-28T19:05:05.181Z,66.50
2018-11-28T19:07:36.032Z,74.70
2018-11-28T19:10:14.585Z,68.30
2018-11-28T19:12:47.122Z,66.67
2018-11-28T19:15:21.726Z,64.50
2018-11-28T19:17:53.674Z,73.60
2018-11-28T19:20:28.614Z,67.33
2018-11-28T19:23:03.024Z,80.93
2018-11-28T19:25:34.523Z,67.30
2018-11-28T19:28:05.291Z,64.73
2018-11-28T19:30:38.304Z,72.40
2018-11-28T19:33:11.268Z,69.60
2018-11-28T19:35:43.137Z,68.77
2018-11-28T19:38:14.504Z,71.53
2018-11-28T19:40:55.470Z,68.60
2018-11-28T19:43:27.995Z,68.40
2018-11-28T19:46:01.153Z,67.40
2018-11-28T19:48:35.929Z,59.17
2018-11-28T19:51:08.212Z,65.70
2018-11-28T19:53:39.491Z,69.17
2018-11-28T19:56:09.293Z,60.90
2018-11-28T19:58:39.118Z,65.53
2018-11-28T20:01:11.907Z,69.27
2018-11-28T20:03:43.108Z,59.23
2018-11-28T20:06:14.845Z,68.60
2018-11-28T20:08:46.806Z,68.20
2018-11-28T20:11:16.472Z,54.23
2018-11-28T20:13:47.284Z,52.20
2018-11-28T20:16:17.792Z,54.33
2018-11-28T20:18:48.352Z,61.27
2018-11-28T20:21:19.273Z,56.80
2018-11-28T20:23:49.515Z,57.70
2018-11-28T20:26:19.119Z,64.80
2018-11-28T20:28:53.396Z,53.30
2018-11-28T20:31:24.420Z,53.60
2018-11-28T20:33:54.747Z,59.67
2018-11-28T20:36:26.279Z,60.37
2018-11-28T20:38:57.469Z,58.70
2018-11-28T20:41:30.261Z,54.60
2018-11-28T20:44:04.357Z,54.80
2018-11-28T20:46:35.041Z,57.90
2018-11-28T20:49:07.867Z,58.10
2018-11-28T20:51:39.351Z,59.23
2018-11-28T20:54:10.774Z,62.17
2018-11-28T20:56:43.362Z,53.97
2018-11-28T20:59:14.110Z,60.80
2018-11-28T21:01:45.235Z,60.07
2018-11-28T21:04:16.062Z,57.80
2018-11-28T21:06:47.627Z,61.53
2018-11-28T21:09:17.195Z,62.17
2018-11-28T21:11:47.724Z,64.60
2018-11-28T21:14:17.630Z,60.13
2018-11-28T21:16:49.122Z,53.33
2018-11-28T21:19:19.556Z,55.00
2018-11-28T21:21:50.405Z,56.87
2018-11-28T21:24:20.009Z,70.67
2018-11-28T21:26:50.800Z,59.57
2018-11-28T21:29:21.499Z,51.77
2018-11-28T21:31:52.841Z,52.60
2018-11-28T21:34:22.960Z,52.03
2018-11-28T21:36:53.443Z,53.83
2018-11-28T21:39:24.172Z,60.87
2018-11-28T21:41:54.738Z,56.60
2018-11-28T21:44:25.550Z,59.30
2018-11-28T21:46:56.432Z,52.63
2018-11-28T21:49:26.622Z,53.90
2018-11-28T21:51:58.402Z,50.73
2018-11-28T21:54:27.987Z,60.97
2018-11-28T21:56:58.580Z,52.80
2018-11-28T21:59:29.031Z,57.37
2018-11-28T22:02:00.355Z,59.63
2018-11-28T22:04:31.248Z,59.00
2018-11-28T22:07:01.511Z,59.47
2018-11-28T22:09:33.556Z,56.50
2018-11-28T22:12:02.841Z,60.50
2018-11-28T22:14:34.668Z,52.07
2018-11-28T22:17:05.531Z,60.70
2018-11-28T22:19:35.673Z,55.50
2018-11-28T22:22:06.051Z,57.63
2018-11-28T22:24:37.256Z,53.37
2018-11-28T22:27:06.966Z,57.10
2018-11-28T22:29:37.762Z,52.27
2018-11-28T22:32:08.752Z,47.50
2018-11-28T22:34:38.734Z,54.63
2018-11-28T22:37:09.099Z,56.47
2018-11-28T22:39:40.055Z,56.20
2018-11-28T22:42:10.175Z,53.67
2018-11-28T22:44:42.232Z,58.13
2018-11-28T22:47:12.536Z,51.97
2018-11-28T22:49:42.766Z,59.47
2018-11-28T22:52:13.031Z,52.30
2018-11-28T22:56:07.885Z,51.83
2018-11-28T22:58:39.841Z,57.00
2018-11-28T23:01:13.280Z,54.20
2018-11-28T23:03:44.115Z,51.23
2018-11-28T23:06:14.237Z,49.73
2018-11-28T23:08:44.052Z,53.23
2018-11-28T23:11:15.882Z,49.30
2018-11-28T23:13:46.293Z,51.67
2018-11-28T23:16:17.073Z,59.20
2018-11-28T23:18:46.958Z,52.27
2018-11-28T23:21:18.039Z,61.10
2018-11-28T23:23:50.091Z,55.30
2018-11-28T23:26:19.582Z,55.70
2018-11-28T23:28:50.032Z,60.47
2018-11-28T23:31:19.751Z,58.83
2018-11-28T23:33:52.496Z,57.43
2018-11-28T23:36:23.383Z,59.10
2018-11-28T23:38:53.660Z,58.30
2018-11-28T23:41:26.139Z,54.53
2018-11-28T23:43:56.942Z,67.13
2018-11-28T23:46:27.461Z,62.00
2018-11-28T23:49:01.330Z,58.57
2018-11-28T23:51:32.320Z,51.87
2018-11-28T23:54:02.227Z,60.83
2018-11-28T23:56:33.468Z,53.60
2018-11-28T23:59:03.482Z,58.53
